sensor_id;sensor_type;location;lat;lon;timestamp;P1;durP1;ratioP1;P2;durP2;ratioP2
33190;SDS011;19554;42.652;23.364;2022-12-29T00:02:07;55.15;;;32.42;;
33190;SDS011;19554;42.652;23.364;2022-12-29T00:04:33;60.50;;;32.65;;
33190;SDS011;19554;42.652;23.364;2022-12-29T00:06:58;59.85;;;33.92;;
33190;SDS011;19554;42.652;23.364;2022-12-29T00:09:24;56.40;;;33.22;;
33190;SDS011;19554;42.652;23.364;2022-12-29T00:11:51;57.80;;;32.85;;
33190;SDS011;19554;42.652;23.364;2022-12-29T00:14:16;62.33;;;32.97;;
33190;SDS011;19554;42.652;23.364;2022-12-29T00:17:00;54.08;;;30.58;;
33190;SDS011;19554;42.652;23.364;2022-12-29T00:19:26;46.13;;;28.08;;
33190;SDS011;19554;42.652;23.364;2022-12-29T00:22:11;43.35;;;25.60;;
33190;SDS011;19554;42.652;23.364;2022-12-29T00:24:56;44.63;;;26.13;;
33190;SDS011;19554;42.652;23.364;2022-12-29T00:27:25;40.65;;;24.00;;
33190;SDS011;19554;42.652;23.364;2022-12-29T00:30:17;40.72;;;24.23;;
33190;SDS011;19554;42.652;23.364;2022-12-29T00:35:58;36.35;;;21.02;;
33190;SDS011;19554;42.652;23.364;2022-12-29T00:38:38;38.30;;;21.77;;
33190;SDS011;19554;42.652;23.364;2022-12-29T00:41:25;33.67;;;21.27;;
33190;SDS011;19554;42.652;23.364;2022-12-29T00:44:10;33.78;;;20.67;;
33190;SDS011;19554;42.652;23.364;2022-12-29T00:46:37;38.53;;;21.95;;
33190;SDS011;19554;42.652;23.364;2022-12-29T00:49:03;38.90;;;21.42;;
33190;SDS011;19554;42.652;23.364;2022-12-29T00:51:49;36.35;;;21.00;;
33190;SDS011;19554;42.652;23.364;2022-12-29T00:54:15;36.35;;;22.13;;
33190;SDS011;19554;42.652;23.364;2022-12-29T00:56:40;35.33;;;21.55;;
33190;SDS011;19554;42.652;23.364;2022-12-29T00:59:07;38.80;;;22.90;;
33190;SDS011;19554;42.652;23.364;2022-12-29T01:01:34;37.50;;;21.73;;
33190;SDS011;19554;42.652;23.364;2022-12-29T01:04:00;42.50;;;23.83;;
33190;SDS011;19554;42.652;23.364;2022-12-29T01:06:26;53.08;;;29.42;;
33190;SDS011;19554;42.652;23.364;2022-12-29T01:08:52;43.72;;;25.20;;
33190;SDS011;19554;42.652;23.364;2022-12-29T01:11:36;49.97;;;28.52;;
33190;SDS011;19554;42.652;23.364;2022-12-29T01:14:01;48.67;;;27.55;;
33190;SDS011;19554;42.652;23.364;2022-12-29T01:16:27;48.25;;;28.75;;
33190;SDS011;19554;42.652;23.364;2022-12-29T01:18:52;48.92;;;28.98;;
33190;SDS011;19554;42.652;23.364;2022-12-29T01:21:18;45.20;;;27.90;;
33190;SDS011;19554;42.652;23.364;2022-12-29T01:23:44;46.03;;;28.13;;
33190;SDS011;19554;42.652;23.364;2022-12-29T01:26:10;41.70;;;25.33;;
33190;SDS011;19554;42.652;23.364;2022-12-29T01:28:36;42.95;;;24.15;;
33190;SDS011;19554;42.652;23.364;2022-12-29T01:31:04;42.67;;;24.50;;
33190;SDS011;19554;42.652;23.364;2022-12-29T01:33:30;46.90;;;27.52;;
33190;SDS011;19554;42.652;23.364;2022-12-29T01:36:00;43.15;;;25.20;;
33190;SDS011;19554;42.652;23.364;2022-12-29T01:38:26;43.05;;;26.10;;
33190;SDS011;19554;42.652;23.364;2022-12-29T01:40:51;44.50;;;26.27;;
33190;SDS011;19554;42.652;23.364;2022-12-29T01:43:17;43.40;;;26.48;;
33190;SDS011;19554;42.652;23.364;2022-12-29T01:45:47;43.22;;;25.20;;
33190;SDS011;19554;42.652;23.364;2022-12-29T01:48:15;42.78;;;25.38;;
33190;SDS011;19554;42.652;23.364;2022-12-29T01:50:44;40.05;;;24.65;;
33190;SDS011;19554;42.652;23.364;2022-12-29T01:53:18;44.78;;;24.85;;
33190;SDS011;19554;42.652;23.364;2022-12-29T01:55:52;36.35;;;23.42;;
33190;SDS011;19554;42.652;23.364;2022-12-29T01:58:21;40.92;;;25.20;;
33190;SDS011;19554;42.652;23.364;2022-12-29T02:00:49;39.08;;;24.50;;
33190;SDS011;19554;42.652;23.364;2022-12-29T02:03:15;40.80;;;24.98;;
33190;SDS011;19554;42.652;23.364;2022-12-29T02:05:52;54.75;;;29.30;;
33190;SDS011;19554;42.652;23.364;2022-12-29T02:08:23;49.20;;;28.10;;
33190;SDS011;19554;42.652;23.364;2022-12-29T02:10:51;48.42;;;27.67;;
33190;SDS011;19554;42.652;23.364;2022-12-29T02:13:17;43.72;;;26.27;;
33190;SDS011;19554;42.652;23.364;2022-12-29T02:31:56;43.17;;;26.35;;
33190;SDS011;19554;42.652;23.364;2022-12-29T02:43:00;45.20;;;25.58;;
33190;SDS011;19554;42.652;23.364;2022-12-29T02:46:08;43.20;;;25.35;;
33190;SDS011;19554;42.652;23.364;2022-12-29T02:48:36;41.15;;;24.70;;
33190;SDS011;19554;42.652;23.364;2022-12-29T02:53:51;48.17;;;25.17;;
33190;SDS011;19554;42.652;23.364;2022-12-29T02:56:36;42.33;;;25.10;;
33190;SDS011;19554;42.652;23.364;2022-12-29T02:59:01;45.22;;;25.75;;
33190;SDS011;19554;42.652;23.364;2022-12-29T03:04:39;45.47;;;25.88;;
33190;SDS011;19554;42.652;23.364;2022-12-29T03:15:13;47.83;;;27.40;;
33190;SDS011;19554;42.652;23.364;2022-12-29T03:18:09;41.72;;;25.73;;
33190;SDS011;19554;42.652;23.364;2022-12-29T03:20:47;46.40;;;25.95;;
33190;SDS011;19554;42.652;23.364;2022-12-29T03:23:18;50.95;;;27.65;;
33190;SDS011;19554;42.652;23.364;2022-12-29T03:25:47;47.78;;;27.30;;
33190;SDS011;19554;42.652;23.364;2022-12-29T03:28:21;50.22;;;28.13;;
33190;SDS011;19554;42.652;23.364;2022-12-29T03:30:50;51.00;;;28.40;;
33190;SDS011;19554;42.652;23.364;2022-12-29T03:33:17;59.03;;;30.77;;
33190;SDS011;19554;42.652;23.364;2022-12-29T03:35:47;53.00;;;30.60;;
33190;SDS011;19554;42.652;23.364;2022-12-29T03:40:48;59.35;;;34.60;;
33190;SDS011;19554;42.652;23.364;2022-12-29T03:43:17;57.58;;;34.03;;
33190;SDS011;19554;42.652;23.364;2022-12-29T03:45:43;61.47;;;33.97;;
33190;SDS011;19554;42.652;23.364;2022-12-29T03:48:09;53.40;;;32.28;;
33190;SDS011;19554;42.652;23.364;2022-12-29T03:50:34;59.78;;;33.50;;
33190;SDS011;19554;42.652;23.364;2022-12-29T03:52:59;56.22;;;33.28;;
33190;SDS011;19554;42.652;23.364;2022-12-29T03:55:25;58.67;;;33.53;;
33190;SDS011;19554;42.652;23.364;2022-12-29T03:57:50;58.40;;;34.33;;
33190;SDS011;19554;42.652;23.364;2022-12-29T04:00:16;53.03;;;33.75;;
33190;SDS011;19554;42.652;23.364;2022-12-29T04:02:41;50.08;;;29.35;;
33190;SDS011;19554;42.652;23.364;2022-12-29T04:05:07;49.72;;;28.33;;
33190;SDS011;19554;42.652;23.364;2022-12-29T04:07:32;43.03;;;24.65;;
33190;SDS011;19554;42.652;23.364;2022-12-29T04:09:58;42.45;;;25.17;;
33190;SDS011;19554;42.652;23.364;2022-12-29T04:12:23;45.58;;;25.33;;
33190;SDS011;19554;42.652;23.364;2022-12-29T04:14:49;41.53;;;25.38;;
33190;SDS011;19554;42.652;23.364;2022-12-29T04:17:14;41.17;;;25.95;;
33190;SDS011;19554;42.652;23.364;2022-12-29T04:19:39;43.20;;;24.63;;
33190;SDS011;19554;42.652;23.364;2022-12-29T04:22:05;41.55;;;25.30;;
33190;SDS011;19554;42.652;23.364;2022-12-29T04:24:30;43.50;;;25.33;;
33190;SDS011;19554;42.652;23.364;2022-12-29T04:26:55;42.47;;;25.08;;
33190;SDS011;19554;42.652;23.364;2022-12-29T04:29:21;41.25;;;25.35;;
33190;SDS011;19554;42.652;23.364;2022-12-29T04:31:46;44.05;;;26.02;;
33190;SDS011;19554;42.652;23.364;2022-12-29T04:34:12;41.50;;;23.92;;
33190;SDS011;19554;42.652;23.364;2022-12-29T04:36:37;40.90;;;25.08;;
33190;SDS011;19554;42.652;23.364;2022-12-29T04:39:04;44.97;;;25.90;;
33190;SDS011;19554;42.652;23.364;2022-12-29T04:41:30;72.07;;;36.72;;
33190;SDS011;19554;42.652;23.364;2022-12-29T04:43:55;66.03;;;35.55;;
33190;SDS011;19554;42.652;23.364;2022-12-29T04:46:21;59.83;;;32.33;;
33190;SDS011;19554;42.652;23.364;2022-12-29T04:48:46;57.60;;;32.85;;
33190;SDS011;19554;42.652;23.364;2022-12-29T04:51:12;61.55;;;35.45;;
33190;SDS011;19554;42.652;23.364;2022-12-29T04:53:37;58.25;;;34.15;;
33190;SDS011;19554;42.652;23.364;2022-12-29T04:56:03;49.53;;;31.75;;
33190;SDS011;19554;42.652;23.364;2022-12-29T04:58:28;48.10;;;31.38;;
33190;SDS011;19554;42.652;23.364;2022-12-29T05:00:54;57.58;;;33.42;;
33190;SDS011;19554;42.652;23.364;2022-12-29T05:03:19;56.35;;;34.47;;
33190;SDS011;19554;42.652;23.364;2022-12-29T05:05:44;50.15;;;31.80;;
33190;SDS011;19554;42.652;23.364;2022-12-29T05:08:10;62.95;;;37.03;;
33190;SDS011;19554;42.652;23.364;2022-12-29T05:10:35;72.60;;;41.40;;
33190;SDS011;19554;42.652;23.364;2022-12-29T05:13:01;57.90;;;36.40;;
33190;SDS011;19554;42.652;23.364;2022-12-29T05:15:26;55.63;;;32.85;;
33190;SDS011;19554;42.652;23.364;2022-12-29T05:20:39;83.32;;;52.80;;
33190;SDS011;19554;42.652;23.364;2022-12-29T05:23:04;78.38;;;52.10;;
33190;SDS011;19554;42.652;23.364;2022-12-29T05:25:30;74.43;;;45.28;;
33190;SDS011;19554;42.652;23.364;2022-12-29T05:27:55;80.88;;;48.00;;
33190;SDS011;19554;42.652;23.364;2022-12-29T05:30:20;76.75;;;44.22;;
33190;SDS011;19554;42.652;23.364;2022-12-29T05:32:46;76.13;;;47.42;;
33190;SDS011;19554;42.652;23.364;2022-12-29T05:35:11;70.95;;;42.20;;
33190;SDS011;19554;42.652;23.364;2022-12-29T05:37:36;64.88;;;35.45;;
33190;SDS011;19554;42.652;23.364;2022-12-29T05:40:02;60.05;;;34.63;;
33190;SDS011;19554;42.652;23.364;2022-12-29T05:42:28;65.03;;;35.38;;
33190;SDS011;19554;42.652;23.364;2022-12-29T05:44:53;60.42;;;35.67;;
33190;SDS011;19554;42.652;23.364;2022-12-29T05:47:19;60.25;;;35.30;;
33190;SDS011;19554;42.652;23.364;2022-12-29T05:49:44;58.95;;;34.20;;
33190;SDS011;19554;42.652;23.364;2022-12-29T05:55:06;52.92;;;32.53;;
33190;SDS011;19554;42.652;23.364;2022-12-29T05:57:32;53.47;;;32.03;;
33190;SDS011;19554;42.652;23.364;2022-12-29T05:59:57;52.95;;;31.48;;
33190;SDS011;19554;42.652;23.364;2022-12-29T06:02:22;56.03;;;32.08;;
33190;SDS011;19554;42.652;23.364;2022-12-29T06:04:48;64.10;;;35.10;;
33190;SDS011;19554;42.652;23.364;2022-12-29T06:07:13;63.05;;;36.20;;
33190;SDS011;19554;42.652;23.364;2022-12-29T06:09:39;59.72;;;34.75;;
33190;SDS011;19554;42.652;23.364;2022-12-29T06:12:04;58.30;;;34.53;;
33190;SDS011;19554;42.652;23.364;2022-12-29T06:14:30;61.13;;;35.15;;
33190;SDS011;19554;42.652;23.364;2022-12-29T06:16:55;60.10;;;34.80;;
33190;SDS011;19554;42.652;23.364;2022-12-29T06:19:21;59.80;;;34.63;;
33190;SDS011;19554;42.652;23.364;2022-12-29T06:21:46;57.40;;;34.17;;
33190;SDS011;19554;42.652;23.364;2022-12-29T06:24:11;57.70;;;34.72;;
33190;SDS011;19554;42.652;23.364;2022-12-29T06:26:37;71.28;;;35.92;;
33190;SDS011;19554;42.652;23.364;2022-12-29T06:29:02;64.45;;;36.53;;
33190;SDS011;19554;42.652;23.364;2022-12-29T06:31:28;62.63;;;36.30;;
33190;SDS011;19554;42.652;23.364;2022-12-29T06:33:53;57.85;;;31.30;;
33190;SDS011;19554;42.652;23.364;2022-12-29T06:36:18;57.63;;;32.50;;
33190;SDS011;19554;42.652;23.364;2022-12-29T06:38:44;52.17;;;30.45;;
33190;SDS011;19554;42.652;23.364;2022-12-29T06:41:09;47.88;;;29.92;;
33190;SDS011;19554;42.652;23.364;2022-12-29T06:43:35;48.88;;;29.63;;
33190;SDS011;19554;42.652;23.364;2022-12-29T06:46:03;53.17;;;30.25;;
33190;SDS011;19554;42.652;23.364;2022-12-29T06:48:29;55.17;;;30.17;;
33190;SDS011;19554;42.652;23.364;2022-12-29T06:50:55;51.67;;;31.80;;
33190;SDS011;19554;42.652;23.364;2022-12-29T06:53:20;52.33;;;31.35;;
33190;SDS011;19554;42.652;23.364;2022-12-29T06:55:45;60.42;;;31.40;;
33190;SDS011;19554;42.652;23.364;2022-12-29T06:58:11;53.63;;;31.15;;
33190;SDS011;19554;42.652;23.364;2022-12-29T07:00:36;54.08;;;31.45;;
33190;SDS011;19554;42.652;23.364;2022-12-29T07:03:02;57.25;;;31.02;;
33190;SDS011;19554;42.652;23.364;2022-12-29T07:05:27;54.95;;;31.75;;
33190;SDS011;19554;42.652;23.364;2022-12-29T07:07:53;56.00;;;30.98;;
33190;SDS011;19554;42.652;23.364;2022-12-29T07:10:19;54.63;;;32.88;;
33190;SDS011;19554;42.652;23.364;2022-12-29T07:12:45;57.42;;;33.88;;
33190;SDS011;19554;42.652;23.364;2022-12-29T07:15:11;56.65;;;31.45;;
33190;SDS011;19554;42.652;23.364;2022-12-29T07:17:36;57.50;;;35.10;;
33190;SDS011;19554;42.652;23.364;2022-12-29T07:20:02;59.00;;;36.17;;
33190;SDS011;19554;42.652;23.364;2022-12-29T07:22:28;58.38;;;36.03;;
33190;SDS011;19554;42.652;23.364;2022-12-29T07:24:53;56.47;;;32.42;;
33190;SDS011;19554;42.652;23.364;2022-12-29T07:27:19;55.05;;;33.08;;
33190;SDS011;19554;42.652;23.364;2022-12-29T07:29:44;52.03;;;32.35;;
33190;SDS011;19554;42.652;23.364;2022-12-29T07:32:09;52.67;;;30.85;;
33190;SDS011;19554;42.652;23.364;2022-12-29T07:34:35;55.40;;;32.97;;
33190;SDS011;19554;42.652;23.364;2022-12-29T07:37:00;53.45;;;33.20;;
33190;SDS011;19554;42.652;23.364;2022-12-29T07:39:25;58.03;;;35.42;;
33190;SDS011;19554;42.652;23.364;2022-12-29T07:41:51;57.33;;;34.85;;
33190;SDS011;19554;42.652;23.364;2022-12-29T07:44:16;55.63;;;33.00;;
33190;SDS011;19554;42.652;23.364;2022-12-29T07:46:41;57.95;;;32.33;;
33190;SDS011;19554;42.652;23.364;2022-12-29T07:49:07;51.30;;;32.35;;
33190;SDS011;19554;42.652;23.364;2022-12-29T07:51:33;56.00;;;32.22;;
33190;SDS011;19554;42.652;23.364;2022-12-29T07:53:58;54.45;;;32.55;;
33190;SDS011;19554;42.652;23.364;2022-12-29T07:56:25;58.05;;;32.88;;
33190;SDS011;19554;42.652;23.364;2022-12-29T07:58:51;55.00;;;32.35;;
33190;SDS011;19554;42.652;23.364;2022-12-29T08:01:16;50.20;;;31.55;;
33190;SDS011;19554;42.652;23.364;2022-12-29T08:03:42;53.63;;;32.03;;
33190;SDS011;19554;42.652;23.364;2022-12-29T08:06:10;55.15;;;32.67;;
33190;SDS011;19554;42.652;23.364;2022-12-29T08:08:36;49.35;;;31.05;;
33190;SDS011;19554;42.652;23.364;2022-12-29T08:11:01;53.25;;;32.60;;
33190;SDS011;19554;42.652;23.364;2022-12-29T08:13:27;56.88;;;32.85;;
33190;SDS011;19554;42.652;23.364;2022-12-29T08:15:52;54.47;;;31.60;;
33190;SDS011;19554;42.652;23.364;2022-12-29T08:18:17;53.70;;;31.52;;
33190;SDS011;19554;42.652;23.364;2022-12-29T08:20:43;57.10;;;32.65;;
33190;SDS011;19554;42.652;23.364;2022-12-29T08:23:08;50.92;;;31.48;;
33190;SDS011;19554;42.652;23.364;2022-12-29T08:25:33;62.38;;;33.08;;
33190;SDS011;19554;42.652;23.364;2022-12-29T08:27:59;51.80;;;32.33;;
33190;SDS011;19554;42.652;23.364;2022-12-29T08:30:24;55.13;;;30.65;;
33190;SDS011;19554;42.652;23.364;2022-12-29T08:32:49;48.53;;;30.25;;
33190;SDS011;19554;42.652;23.364;2022-12-29T08:35:15;55.58;;;31.20;;
33190;SDS011;19554;42.652;23.364;2022-12-29T08:37:41;50.28;;;30.00;;
33190;SDS011;19554;42.652;23.364;2022-12-29T08:40:06;57.30;;;30.80;;
33190;SDS011;19554;42.652;23.364;2022-12-29T08:42:32;55.83;;;32.03;;
33190;SDS011;19554;42.652;23.364;2022-12-29T08:44:58;48.97;;;30.17;;
33190;SDS011;19554;42.652;23.364;2022-12-29T08:47:24;45.53;;;29.67;;
33190;SDS011;19554;42.652;23.364;2022-12-29T08:49:50;46.47;;;28.60;;
33190;SDS011;19554;42.652;23.364;2022-12-29T08:52:15;51.22;;;29.95;;
33190;SDS011;19554;42.652;23.364;2022-12-29T08:54:41;51.97;;;30.23;;
33190;SDS011;19554;42.652;23.364;2022-12-29T08:57:06;55.03;;;30.63;;
33190;SDS011;19554;42.652;23.364;2022-12-29T08:59:32;57.78;;;31.73;;
33190;SDS011;19554;42.652;23.364;2022-12-29T09:01:57;53.70;;;30.55;;
33190;SDS011;19554;42.652;23.364;2022-12-29T09:04:22;46.15;;;29.65;;
33190;SDS011;19554;42.652;23.364;2022-12-29T09:06:48;47.17;;;30.00;;
33190;SDS011;19554;42.652;23.364;2022-12-29T09:09:14;48.03;;;31.25;;
33190;SDS011;19554;42.652;23.364;2022-12-29T09:11:39;53.83;;;32.00;;
33190;SDS011;19554;42.652;23.364;2022-12-29T09:14:06;50.95;;;31.42;;
33190;SDS011;19554;42.652;23.364;2022-12-29T09:16:31;50.05;;;31.27;;
33190;SDS011;19554;42.652;23.364;2022-12-29T09:18:57;50.85;;;31.15;;
33190;SDS011;19554;42.652;23.364;2022-12-29T09:21:22;53.72;;;32.08;;
33190;SDS011;19554;42.652;23.364;2022-12-29T09:23:48;53.42;;;31.65;;
33190;SDS011;19554;42.652;23.364;2022-12-29T09:26:13;60.95;;;31.88;;
33190;SDS011;19554;42.652;23.364;2022-12-29T09:28:38;56.10;;;31.48;;
33190;SDS011;19554;42.652;23.364;2022-12-29T09:31:05;46.35;;;30.17;;
33190;SDS011;19554;42.652;23.364;2022-12-29T09:33:30;51.15;;;31.55;;
33190;SDS011;19554;42.652;23.364;2022-12-29T09:35:58;55.95;;;33.13;;
33190;SDS011;19554;42.652;23.364;2022-12-29T09:38:24;47.63;;;30.13;;
33190;SDS011;19554;42.652;23.364;2022-12-29T09:40:51;48.00;;;27.70;;
33190;SDS011;19554;42.652;23.364;2022-12-29T09:46:32;45.17;;;26.98;;
33190;SDS011;19554;42.652;23.364;2022-12-29T09:49:18;41.85;;;26.67;;
33190;SDS011;19554;42.652;23.364;2022-12-29T09:54:41;49.07;;;29.20;;
33190;SDS011;19554;42.652;23.364;2022-12-29T09:57:23;45.15;;;28.33;;
33190;SDS011;19554;42.652;23.364;2022-12-29T09:59:54;47.75;;;27.98;;
33190;SDS011;19554;42.652;23.364;2022-12-29T10:04:58;44.20;;;26.83;;
33190;SDS011;19554;42.652;23.364;2022-12-29T10:07:28;44.10;;;27.60;;
33190;SDS011;19554;42.652;23.364;2022-12-29T10:13:10;43.97;;;26.48;;
33190;SDS011;19554;42.652;23.364;2022-12-29T10:18:38;51.90;;;29.25;;
33190;SDS011;19554;42.652;23.364;2022-12-29T10:24:12;47.92;;;26.67;;
33190;SDS011;19554;42.652;23.364;2022-12-29T10:26:42;42.13;;;26.70;;
33190;SDS011;19554;42.652;23.364;2022-12-29T10:29:13;41.15;;;27.08;;
33190;SDS011;19554;42.652;23.364;2022-12-29T10:31:44;47.70;;;27.48;;
33190;SDS011;19554;42.652;23.364;2022-12-29T10:34:33;42.20;;;27.20;;
33190;SDS011;19554;42.652;23.364;2022-12-29T10:37:09;45.70;;;26.85;;
33190;SDS011;19554;42.652;23.364;2022-12-29T10:39:49;43.85;;;27.95;;
33190;SDS011;19554;42.652;23.364;2022-12-29T10:45:24;58.20;;;33.25;;
33190;SDS011;19554;42.652;23.364;2022-12-29T10:47:59;53.22;;;29.40;;
33190;SDS011;19554;42.652;23.364;2022-12-29T10:50:28;50.40;;;30.83;;
33190;SDS011;19554;42.652;23.364;2022-12-29T10:52:58;50.17;;;31.85;;
33190;SDS011;19554;42.652;23.364;2022-12-29T10:55:27;57.95;;;33.10;;
33190;SDS011;19554;42.652;23.364;2022-12-29T10:58:00;55.60;;;30.63;;
33190;SDS011;19554;42.652;23.364;2022-12-29T11:00:30;62.20;;;32.42;;
33190;SDS011;19554;42.652;23.364;2022-12-29T11:05:29;53.33;;;31.35;;
33190;SDS011;19554;42.652;23.364;2022-12-29T11:08:12;53.78;;;30.88;;
33190;SDS011;19554;42.652;23.364;2022-12-29T11:10:42;52.05;;;30.75;;
33190;SDS011;19554;42.652;23.364;2022-12-29T11:13:19;57.40;;;30.95;;
33190;SDS011;19554;42.652;23.364;2022-12-29T11:15:51;54.20;;;32.67;;
33190;SDS011;19554;42.652;23.364;2022-12-29T11:18:26;52.83;;;30.90;;
33190;SDS011;19554;42.652;23.364;2022-12-29T11:20:58;49.95;;;30.70;;
33190;SDS011;19554;42.652;23.364;2022-12-29T11:23:33;55.33;;;32.70;;
33190;SDS011;19554;42.652;23.364;2022-12-29T11:26:07;50.90;;;31.63;;
33190;SDS011;19554;42.652;23.364;2022-12-29T11:28:43;54.05;;;31.55;;
33190;SDS011;19554;42.652;23.364;2022-12-29T11:31:28;49.22;;;29.85;;
33190;SDS011;19554;42.652;23.364;2022-12-29T11:33:54;53.28;;;31.02;;
33190;SDS011;19554;42.652;23.364;2022-12-29T11:36:20;51.20;;;31.58;;
33190;SDS011;19554;42.652;23.364;2022-12-29T11:38:49;53.05;;;30.83;;
33190;SDS011;19554;42.652;23.364;2022-12-29T11:41:23;56.58;;;30.17;;
33190;SDS011;19554;42.652;23.364;2022-12-29T11:43:51;50.28;;;31.25;;
33190;SDS011;19554;42.652;23.364;2022-12-29T11:46:24;52.55;;;31.02;;
33190;SDS011;19554;42.652;23.364;2022-12-29T11:48:52;52.85;;;31.67;;
33190;SDS011;19554;42.652;23.364;2022-12-29T11:51:29;48.97;;;29.60;;
33190;SDS011;19554;42.652;23.364;2022-12-29T11:54:09;51.33;;;32.38;;
33190;SDS011;19554;42.652;23.364;2022-12-29T11:56:42;59.83;;;32.85;;
33190;SDS011;19554;42.652;23.364;2022-12-29T12:01:51;55.53;;;32.95;;
33190;SDS011;19554;42.652;23.364;2022-12-29T12:04:18;55.42;;;31.67;;
33190;SDS011;19554;42.652;23.364;2022-12-29T12:06:49;46.20;;;29.57;;
33190;SDS011;19554;42.652;23.364;2022-12-29T12:09:49;46.90;;;30.23;;
33190;SDS011;19554;42.652;23.364;2022-12-29T12:12:37;51.67;;;29.50;;
33190;SDS011;19554;42.652;23.364;2022-12-29T12:15:08;53.35;;;28.63;;
33190;SDS011;19554;42.652;23.364;2022-12-29T12:18:45;45.13;;;28.33;;
33190;SDS011;19554;42.652;23.364;2022-12-29T12:20:56;52.13;;;29.75;;
33190;SDS011;19554;42.652;23.364;2022-12-29T12:23:36;55.05;;;31.70;;
33190;SDS011;19554;42.652;23.364;2022-12-29T12:26:17;49.13;;;29.20;;
33190;SDS011;19554;42.652;23.364;2022-12-29T12:28:53;53.33;;;29.15;;
33190;SDS011;19554;42.652;23.364;2022-12-29T12:34:00;47.22;;;28.73;;
33190;SDS011;19554;42.652;23.364;2022-12-29T12:42:12;52.35;;;29.65;;
33190;SDS011;19554;42.652;23.364;2022-12-29T12:45:24;48.22;;;27.83;;
33190;SDS011;19554;42.652;23.364;2022-12-29T13:02:02;50.20;;;28.52;;
33190;SDS011;19554;42.652;23.364;2022-12-29T13:12:01;54.50;;;30.60;;
33190;SDS011;19554;42.652;23.364;2022-12-29T13:14:42;53.10;;;29.35;;
33190;SDS011;19554;42.652;23.364;2022-12-29T13:17:25;57.35;;;30.10;;
33190;SDS011;19554;42.652;23.364;2022-12-29T13:25:34;52.70;;;30.08;;
33190;SDS011;19554;42.652;23.364;2022-12-29T13:28:20;60.83;;;31.48;;
33190;SDS011;19554;42.652;23.364;2022-12-29T13:36:37;55.13;;;31.55;;
33190;SDS011;19554;42.652;23.364;2022-12-29T13:39:10;56.55;;;30.23;;
33190;SDS011;19554;42.652;23.364;2022-12-29T13:41:49;50.13;;;29.23;;
33190;SDS011;19554;42.652;23.364;2022-12-29T13:44:18;52.38;;;30.75;;
33190;SDS011;19554;42.652;23.364;2022-12-29T13:46:48;55.65;;;29.75;;
33190;SDS011;19554;42.652;23.364;2022-12-29T13:49:21;56.15;;;30.27;;
33190;SDS011;19554;42.652;23.364;2022-12-29T13:59:48;49.72;;;29.35;;
33190;SDS011;19554;42.652;23.364;2022-12-29T14:05:30;61.40;;;30.83;;
33190;SDS011;19554;42.652;23.364;2022-12-29T14:08:03;59.80;;;30.75;;
33190;SDS011;19554;42.652;23.364;2022-12-29T14:10:37;59.28;;;30.38;;
33190;SDS011;19554;42.652;23.364;2022-12-29T14:15:45;59.63;;;31.25;;
33190;SDS011;19554;42.652;23.364;2022-12-29T14:18:20;59.10;;;33.35;;
33190;SDS011;19554;42.652;23.364;2022-12-29T14:20:54;60.20;;;32.25;;
33190;SDS011;19554;42.652;23.364;2022-12-29T14:28:32;63.60;;;34.70;;
33190;SDS011;19554;42.652;23.364;2022-12-29T14:31:33;57.60;;;32.92;;
33190;SDS011;19554;42.652;23.364;2022-12-29T14:36:34;62.15;;;33.17;;
33190;SDS011;19554;42.652;23.364;2022-12-29T14:39:05;57.35;;;33.15;;
33190;SDS011;19554;42.652;23.364;2022-12-29T14:42:20;57.33;;;32.67;;
33190;SDS011;19554;42.652;23.364;2022-12-29T14:44:58;60.38;;;33.88;;
33190;SDS011;19554;42.652;23.364;2022-12-29T14:52:32;69.70;;;36.20;;
33190;SDS011;19554;42.652;23.364;2022-12-29T14:57:41;78.53;;;41.58;;
33190;SDS011;19554;42.652;23.364;2022-12-29T15:00:21;77.82;;;40.72;;
33190;SDS011;19554;42.652;23.364;2022-12-29T15:02:50;76.00;;;40.65;;
33190;SDS011;19554;42.652;23.364;2022-12-29T15:05:30;78.90;;;42.10;;
33190;SDS011;19554;42.652;23.364;2022-12-29T15:08:09;70.35;;;39.55;;
33190;SDS011;19554;42.652;23.364;2022-12-29T15:10:47;75.70;;;41.60;;
33190;SDS011;19554;42.652;23.364;2022-12-29T15:13:23;77.75;;;42.15;;
33190;SDS011;19554;42.652;23.364;2022-12-29T15:15:57;84.38;;;45.05;;
33190;SDS011;19554;42.652;23.364;2022-12-29T15:18:27;81.65;;;44.15;;
33190;SDS011;19554;42.652;23.364;2022-12-29T15:21:04;78.55;;;43.10;;
33190;SDS011;19554;42.652;23.364;2022-12-29T15:23:32;88.32;;;44.35;;
33190;SDS011;19554;42.652;23.364;2022-12-29T15:28:27;79.30;;;42.03;;
33190;SDS011;19554;42.652;23.364;2022-12-29T15:31:02;72.63;;;39.55;;
33190;SDS011;19554;42.652;23.364;2022-12-29T15:33:29;70.38;;;39.75;;
33190;SDS011;19554;42.652;23.364;2022-12-29T15:35:56;74.20;;;40.22;;
33190;SDS011;19554;42.652;23.364;2022-12-29T15:38:28;84.75;;;41.05;;
33190;SDS011;19554;42.652;23.364;2022-12-29T15:40:56;72.60;;;37.83;;
33190;SDS011;19554;42.652;23.364;2022-12-29T15:43:30;65.90;;;33.97;;
33190;SDS011;19554;42.652;23.364;2022-12-29T15:46:07;70.90;;;35.95;;
33190;SDS011;19554;42.652;23.364;2022-12-29T15:48:36;66.85;;;34.67;;
33190;SDS011;19554;42.652;23.364;2022-12-29T15:51:03;63.95;;;33.42;;
33190;SDS011;19554;42.652;23.364;2022-12-29T15:53:48;65.88;;;34.28;;
33190;SDS011;19554;42.652;23.364;2022-12-29T15:56:15;76.32;;;33.92;;
33190;SDS011;19554;42.652;23.364;2022-12-29T15:58:45;72.03;;;34.90;;
33190;SDS011;19554;42.652;23.364;2022-12-29T16:04:07;67.50;;;34.80;;
33190;SDS011;19554;42.652;23.364;2022-12-29T16:06:35;77.20;;;36.28;;
33190;SDS011;19554;42.652;23.364;2022-12-29T16:11:31;70.75;;;33.55;;
33190;SDS011;19554;42.652;23.364;2022-12-29T16:14:00;63.67;;;34.75;;
33190;SDS011;19554;42.652;23.364;2022-12-29T16:16:29;75.07;;;36.45;;
33190;SDS011;19554;42.652;23.364;2022-12-29T16:19:01;70.03;;;35.30;;
33190;SDS011;19554;42.652;23.364;2022-12-29T16:21:37;69.20;;;35.72;;
33190;SDS011;19554;42.652;23.364;2022-12-29T16:24:05;77.13;;;35.85;;
33190;SDS011;19554;42.652;23.364;2022-12-29T16:26:37;78.32;;;40.15;;
33190;SDS011;19554;42.652;23.364;2022-12-29T16:29:04;86.82;;;41.35;;
33190;SDS011;19554;42.652;23.364;2022-12-29T16:31:32;80.82;;;42.22;;
33190;SDS011;19554;42.652;23.364;2022-12-29T16:34:19;77.47;;;40.75;;
33190;SDS011;19554;42.652;23.364;2022-12-29T16:36:52;57.80;;;32.30;;
33190;SDS011;19554;42.652;23.364;2022-12-29T16:39:40;58.03;;;31.45;;
33190;SDS011;19554;42.652;23.364;2022-12-29T16:47:34;68.05;;;34.40;;
33190;SDS011;19554;42.652;23.364;2022-12-29T16:50:07;64.85;;;36.13;;
33190;SDS011;19554;42.652;23.364;2022-12-29T16:52:48;66.90;;;35.15;;
33190;SDS011;19554;42.652;23.364;2022-12-29T16:55:18;65.32;;;33.92;;
33190;SDS011;19554;42.652;23.364;2022-12-29T16:57:44;60.60;;;34.67;;
33190;SDS011;19554;42.652;23.364;2022-12-29T17:00:19;77.97;;;38.08;;
33190;SDS011;19554;42.652;23.364;2022-12-29T17:02:47;74.78;;;39.38;;
33190;SDS011;19554;42.652;23.364;2022-12-29T17:05:17;82.57;;;36.83;;